Time;durP1;ratioP1;P1;durP2;ratioP2;P2;SDS_P1;SDS_P2;PMS_P1;PMS_P2;Temp;Humidity;BMP_temperature;BMP_pressure;BME280_temperature;BME280_humidity;BME280_pressure;Samples;Min_cycle;Max_cycle;Signal;HPM_P1;HPM_P2
2021/09/18 00:02:05;;;;;;;46.15;26.25;;;;;;;16.14;100.00;101636.47;4977438;28;20920;-61
2021/09/18 00:04:32;;;;;;;46.85;27.33;;;;;;;16.09;100.00;101639.63;4970185;28;20822;-62
2021/09/18 00:06:59;;;;;;;50.85;26.88;;;;;;;16.08;100.00;101634.50;4976570;28;20560;-62
2021/09/18 00:09:25;;;;;;;54.00;28.88;;;;;;;15.98;100.00;101635.44;4965953;28;20473;-62
2021/09/18 00:11:52;;;;;;;50.55;28.98;;;;;;;17.75;96.27;101633.91;4970535;28;20053;-62
2021/09/18 00:14:20;;;;;;;49.42;25.90;;;;;;;16.77;100.00;101635.00;4969123;28;20056;-61
2021/09/18 00:16:47;;;;;;;47.42;26.42;;;;;;;16.36;100.00;101640.31;4976913;28;20181;-62
2021/09/18 00:19:15;;;;;;;43.05;25.83;;;;;;;16.14;100.00;101637.31;4976739;28;20062;-62
2021/09/18 00:21:41;;;;;;;42.97;27.33;;;;;;;15.97;100.00;101635.59;4970079;28;20138;-60
2021/09/18 00:24:08;;;;;;;47.00;27.42;;;;;;;15.97;100.00;101636.44;4970551;28;20143;-61
2021/09/18 00:26:35;;;;;;;48.78;27.63;;;;;;;15.86;100.00;101642.03;4968123;28;20090;-62
2021/09/18 00:29:03;;;;;;;49.35;28.05;;;;;;;15.94;100.00;101642.06;4976338;28;20164;-62
2021/09/18 00:31:30;;;;;;;48.20;26.90;;;;;;;16.11;100.00;101637.63;4969144;28;20134;-61
2021/09/18 00:33:57;;;;;;;44.90;25.98;;;;;;;16.06;100.00;101636.47;4974777;28;20050;-62
2021/09/18 00:36:23;;;;;;;48.42;26.95;;;;;;;15.84;100.00;101640.53;4970754;28;20090;-59
2021/09/18 00:38:50;;;;;;;45.28;26.98;;;;;;;15.80;100.00;101638.22;4963713;28;20086;-61
2021/09/18 00:41:17;;;;;;;43.38;26.55;;;;;;;18.28;91.39;101639.41;4974328;28;20054;-62
2021/09/18 00:43:57;;;;;;;44.80;26.05;;;;;;;18.76;85.53;101632.84;4970693;28;20047;-62
2021/09/18 00:46:25;;;;;;;41.20;25.77;;;;;;;17.23;91.79;101640.59;4973979;28;20054;-62
2021/09/18 00:48:51;;;;;;;46.38;25.55;;;;;;;16.52;99.25;101636.81;4970180;28;20092;-61
2021/09/18 00:51:19;;;;;;;45.90;26.83;;;;;;;16.07;100.00;101641.56;4971363;28;20054;-62
2021/09/18 00:53:46;;;;;;;46.75;25.42;;;;;;;16.13;100.00;101648.88;4974819;28;20081;-61
2021/09/18 00:56:15;;;;;;;39.47;24.23;;;;;;;15.89;100.00;101646.19;4969472;28;20153;-62
2021/09/18 00:58:41;;;;;;;39.67;24.20;;;;;;;15.82;100.00;101654.75;4979145;28;20161;-61
2021/09/18 01:01:08;;;;;;;44.20;23.92;;;;;;;15.65;100.00;101647.72;4968226;28;20194;-61
2021/09/18 01:03:35;;;;;;;43.63;24.85;;;;;;;15.55;100.00;101653.13;4974827;28;20046;-61
2021/09/18 01:06:01;;;;;;;43.63;25.13;;;;;;;15.47;100.00;101647.00;4956537;28;20047;-62
2021/09/18 01:08:30;;;;;;;41.88;23.65;;;;;;;15.40;100.00;101644.97;4975981;28;20054;-60
2021/09/18 01:10:56;;;;;;;37.95;23.00;;;;;;;15.36;100.00;101640.16;4976631;28;20050;-61
2021/09/18 01:13:23;;;;;;;44.03;23.95;;;;;;;15.33;100.00;101646.59;4978424;28;20419;-62
2021/09/18 01:15:50;;;;;;;39.85;22.85;;;;;;;15.31;100.00;101642.44;4977904;28;20086;-62
2021/09/18 01:18:18;;;;;;;34.75;21.27;;;;;;;15.28;100.00;101643.59;4971891;28;20058;-62
2021/09/18 01:20:49;;;;;;;37.15;22.40;;;;;;;15.22;100.00;101641.56;4972309;28;20054;-62
2021/09/18 01:23:25;;;;;;;33.90;21.17;;;;;;;15.15;100.00;101645.81;4975425;28;20488;-62
2021/09/18 01:25:52;;;;;;;35.42;21.65;;;;;;;15.12;100.00;101646.16;4978024;28;20058;-62
2021/09/18 01:28:20;;;;;;;37.75;21.67;;;;;;;15.08;100.00;101635.06;4977497;28;20054;-61
2021/09/18 01:30:46;;;;;;;36.50;20.73;;;;;;;15.07;100.00;101643.94;4975325;28;20050;-62
2021/09/18 01:33:13;;;;;;;36.13;21.45;;;;;;;15.03;100.00;101640.81;4973793;28;20047;-62
2021/09/18 01:35:40;;;;;;;35.53;19.58;;;;;;;15.01;100.00;101634.88;4965305;28;20109;-62
2021/09/18 01:38:07;;;;;;;33.97;20.33;;;;;;;15.02;100.00;101640.97;4978054;28;20557;-62
2021/09/18 01:40:36;;;;;;;36.50;20.30;;;;;;;15.05;100.00;101645.09;4964112;28;20562;-62
2021/09/18 01:43:04;;;;;;;38.65;20.63;;;;;;;15.04;100.00;101644.28;4978602;28;20419;-61
2021/09/18 01:45:33;;;;;;;34.47;19.42;;;;;;;15.09;100.00;101641.97;4974738;28;20053;-62
2021/09/18 01:48:03;;;;;;;32.17;20.02;;;;;;;15.03;100.00;101642.59;4974061;28;20137;-62
2021/09/18 01:50:35;;;;;;;33.10;19.38;;;;;;;15.02;100.00;101644.44;4976973;28;20114;-61
2021/09/18 01:53:07;;;;;;;27.67;17.13;;;;;;;15.01;100.00;101644.56;4973843;28;20129;-62
2021/09/18 01:55:35;;;;;;;28.27;18.02;;;;;;;15.01;100.00;101644.56;4976115;28;20064;-61
2021/09/18 01:58:03;;;;;;;26.80;17.75;;;;;;;14.96;100.00;101638.94;4969738;28;20046;-62
2021/09/18 02:00:30;;;;;;;33.47;17.85;;;;;;;14.93;100.00;101641.88;4970673;28;20445;-62
2021/09/18 02:02:56;;;;;;;30.73;17.38;;;;;;;14.90;100.00;101645.69;4966049;28;20379;-60
2021/09/18 02:05:25;;;;;;;32.45;18.75;;;;;;;15.42;100.00;101635.06;4974406;28;20619;-61
2021/09/18 02:07:53;;;;;;;30.35;18.55;;;;;;;15.86;100.00;101638.56;4979314;28;20051;-62
2021/09/18 02:10:22;;;;;;;31.67;17.15;;;;;;;16.12;96.07;101636.63;4971478;28;20915;-58
2021/09/18 02:12:48;;;;;;;37.92;18.20;;;;;;;15.32;100.00;101629.06;4977550;28;20088;-62
2021/09/18 02:15:17;;;;;;;;;;;;;;;15.30;100.00;101630.22;4965833;28;20054;-62
2021/09/18 02:17:44;;;;;;;29.42;17.70;;;;;;;15.13;100.00;101631.94;4969312;28;19998;-60
2021/09/18 02:20:14;;;;;;;28.73;16.88;;;;;;;15.06;100.00;101623.00;4969798;28;20145;-62
2021/09/18 02:22:42;;;;;;;32.00;18.48;;;;;;;15.09;100.00;101628.78;4978650;28;20461;-62
2021/09/18 02:25:10;;;;;;;30.00;17.30;;;;;;;14.94;100.00;101628.53;4979110;28;20062;-60
2021/09/18 02:27:37;;;;;;;28.58;17.15;;;;;;;14.76;100.00;101627.72;4970680;28;20054;-60
2021/09/18 02:30:06;;;;;;;31.02;16.83;;;;;;;15.35;100.00;101622.66;4974921;28;20463;-60
2021/09/18 02:32:36;;;;;;;28.60;17.20;;;;;;;14.85;100.00;101623.34;4972322;28;20085;-60
2021/09/18 02:35:06;;;;;;;30.67;17.38;;;;;;;14.73;100.00;101620.13;4975449;28;20600;-60
2021/09/18 02:37:33;;;;;;;28.30;16.55;;;;;;;14.60;100.00;101625.78;4971114;28;20124;-61
2021/09/18 02:39:59;;;;;;;26.33;16.80;;;;;;;14.59;100.00;101624.16;4976047;28;20058;-60
2021/09/18 02:42:26;;;;;;;25.10;16.50;;;;;;;14.49;100.00;101626.03;4968612;28;20089;-60
2021/09/18 02:44:53;;;;;;;27.70;16.13;;;;;;;15.23;100.00;101617.63;4969766;28;20136;-57
2021/09/18 02:47:19;;;;;;;25.50;15.02;;;;;;;14.71;100.00;101625.56;4973821;28;20093;-60
2021/09/18 02:49:45;;;;;;;23.70;15.07;;;;;;;14.56;100.00;101624.41;4973034;28;20184;-63
2021/09/18 02:52:12;;;;;;;27.77;14.85;;;;;;;14.55;100.00;101613.03;4976804;28;20054;-62
2021/09/18 02:54:38;;;;;;;32.17;15.75;;;;;;;14.43;100.00;101614.25;4969566;28;20058;-63
2021/09/18 02:57:05;;;;;;;24.58;14.73;;;;;;;14.33;100.00;101613.50;4970324;28;20057;-62
2021/09/18 02:59:31;;;;;;;27.05;15.90;;;;;;;14.67;100.00;101607.56;4976050;28;20066;-60
2021/09/18 03:01:58;;;;;;;23.55;14.43;;;;;;;14.47;100.00;101607.69;4971228;28;20129;-62
2021/09/18 03:04:25;;;;;;;24.83;14.70;;;;;;;14.70;100.00;101615.16;4977752;28;20050;-62
2021/09/18 03:06:51;;;;;;;23.70;13.98;;;;;;;14.39;100.00;101607.63;4971759;28;20050;-63
2021/09/18 03:09:18;;;;;;;23.90;14.60;;;;;;;14.71;100.00;101606.25;4978753;28;20560;-62
2021/09/18 03:11:44;;;;;;;30.08;15.38;;;;;;;14.72;100.00;101602.63;4967783;28;20639;-63
2021/09/18 03:14:11;;;;;;;21.98;14.02;;;;;;;14.73;100.00;101594.53;4978705;28;20057;-62
2021/09/18 03:16:37;;;;;;;21.55;13.50;;;;;;;15.01;100.00;101591.75;4975425;28;20138;-63
2021/09/18 03:19:04;;;;;;;19.58;12.63;;;;;;;15.16;100.00;101592.00;4970735;28;20137;-62
2021/09/18 03:21:30;;;;;;;20.27;13.00;;;;;;;16.26;90.75;101594.63;4969693;28;20110;-62
2021/09/18 03:23:57;;;;;;;23.40;13.60;;;;;;;15.42;97.68;101594.56;4969787;28;20158;-62
2021/09/18 03:26:23;;;;;;;23.75;13.95;;;;;;;15.18;99.71;101598.78;4974275;28;20046;-63
2021/09/18 03:28:50;;;;;;;23.88;11.95;;;;;;;16.95;87.40;101603.84;4973782;28;20053;-62
2021/09/18 03:31:19;;;;;;;21.27;12.38;;;;;;;15.26;95.66;101605.09;4972565;28;20117;-62
2021/09/18 03:33:46;;;;;;;20.52;12.43;;;;;;;14.79;100.00;101607.13;4974394;28;20057;-62
2021/09/18 03:36:13;;;;;;;19.42;11.32;;;;;;;15.67;97.02;101606.06;4962250;28;20055;-62
2021/09/18 03:38:40;;;;;;;15.18;11.07;;;;;;;15.06;97.40;101607.16;4977266;28;20610;-62
2021/09/18 03:41:06;;;;;;;20.50;11.68;;;;;;;14.59;100.00;101626.78;4969211;28;20424;-62
2021/09/18 03:43:33;;;;;;;20.67;11.90;;;;;;;14.34;100.00;101618.63;4977825;28;20133;-62
2021/09/18 03:45:59;;;;;;;23.95;10.70;;;;;;;14.19;100.00;101614.84;4969271;28;20141;-62
2021/09/18 03:48:26;;;;;;;15.40;10.20;;;;;;;14.58;100.00;101614.56;4972446;28;20054;-62
2021/09/18 03:50:53;;;;;;;15.73;9.30;;;;;;;16.38;94.47;101609.19;4972725;28;20105;-62
2021/09/18 03:53:20;;;;;;;16.30;9.43;;;;;;;17.20;85.70;101607.25;4969005;28;20135;-62
2021/09/18 03:55:46;;;;;;;11.63;8.43;;;;;;;15.66;93.18;101609.72;4971274;28;20371;-63
2021/09/18 03:58:13;;;;;;;11.75;7.88;;;;;;;14.93;100.00;101610.19;4967093;28;20464;-62
2021/09/18 04:00:39;;;;;;;18.02;9.30;;;;;;;14.61;100.00;101603.72;4968037;28;20134;-62
2021/09/18 04:03:06;;;;;;;24.15;11.55;;;;;;;14.41;100.00;101603.84;4965855;28;20515;-62
2021/09/18 04:05:32;;;;;;;23.42;10.57;;;;;;;14.91;100.00;101609.53;4970835;28;20054;-62
2021/09/18 04:08:04;;;;;;;29.58;12.35;;;;;;;15.14;100.00;101604.53;4976836;28;20057;-63
2021/09/18 04:10:31;;;;;;;29.00;11.82;;;;;;;15.77;100.00;101606.78;4970283;28;20086;-63
2021/09/18 04:12:57;;;;;;;34.53;12.35;;;;;;;15.70;100.00;101600.47;4976341;28;20058;-63
2021/09/18 04:15:24;;;;;;;55.05;12.68;;;;;;;15.52;100.00;101608.50;4967629;28;20392;-62
2021/09/18 04:17:50;;;;;;;33.88;12.30;;;;;;;15.35;100.00;101615.53;4974008;28;20108;-61
2021/09/18 04:20:17;;;;;;;32.03;12.77;;;;;;;15.15;100.00;101616.75;4970762;28;20059;-62
2021/09/18 04:22:43;;;;;;;29.13;10.63;;;;;;;15.19;100.00;101618.09;4978001;28;20140;-62
2021/09/18 04:25:10;;;;;;;28.92;11.35;;;;;;;15.58;100.00;101617.59;4977598;28;20118;-63
2021/09/18 04:27:37;;;;;;;36.30;11.18;;;;;;;16.76;97.60;101622.75;4970996;28;20073;-62
2021/09/18 04:30:06;;;;;;;23.75;10.85;;;;;;;16.01;98.94;101619.25;4972510;28;20651;-62
2021/09/18 04:32:32;;;;;;;46.08;10.90;;;;;;;15.12;100.00;101628.47;4965880;28;20158;-62
2021/09/18 04:34:59;;;;;;;56.97;10.88;;;;;;;14.83;100.00;101629.59;4975340;28;20057;-62
2021/09/18 04:37:26;;;;;;;64.38;12.50;;;;;;;15.14;100.00;101633.59;4968449;28;20054;-63
2021/09/18 04:39:52;;;;;;;50.28;11.70;;;;;;;15.08;100.00;101626.31;4977252;28;20062;-62
2021/09/18 04:42:19;;;;;;;32.65;12.13;;;;;;;15.11;100.00;101637.41;4979772;28;20054;-62
2021/09/18 04:44:45;;;;;;;53.65;13.10;;;;;;;15.10;100.00;101637.56;4965990;28;20467;-62
2021/09/18 04:47:12;;;;;;;56.92;12.63;;;;;;;16.24;100.00;101636.31;4979845;28;20054;-60
2021/09/18 04:49:38;;;;;;;75.68;13.30;;;;;;;15.10;100.00;101642.84;4972330;28;20058;-61
2021/09/18 04:52:05;;;;;;;58.00;14.10;;;;;;;14.63;100.00;101644.00;4980057;28;20055;-62
2021/09/18 04:54:32;;;;;;;53.03;12.93;;;;;;;14.45;100.00;101651.91;4974595;28;20116;-62
2021/09/18 04:56:58;;;;;;;53.17;13.38;;;;;;;14.36;100.00;101655.44;4978942;28;20150;-62
2021/09/18 04:59:25;;;;;;;35.47;13.25;;;;;;;14.27;100.00;101649.25;4976201;28;20050;-62
2021/09/18 05:01:52;;;;;;;62.42;14.63;;;;;;;14.24;100.00;101646.91;4973492;28;20579;-62
2021/09/18 05:04:18;;;;;;;65.05;14.65;;;;;;;14.18;100.00;101653.63;4978352;28;20046;-62
2021/09/18 05:06:45;;;;;;;50.72;14.73;;;;;;;14.18;100.00;101653.63;4974493;28;20501;-62
2021/09/18 05:09:11;;;;;;;80.13;15.02;;;;;;;14.98;100.00;101658.94;4981824;28;20157;-63
2021/09/18 05:11:38;;;;;;;80.40;14.35;;;;;;;14.36;100.00;101666.00;4968804;28;20359;-61
2021/09/18 05:14:05;;;;;;;45.83;13.43;;;;;;;14.22;100.00;101662.06;4976348;28;20073;-63
2021/09/18 05:16:32;;;;;;;56.15;16.42;;;;;;;14.21;100.00;101669.16;4976956;28;20062;-63
2021/09/18 05:18:58;;;;;;;90.78;16.08;;;;;;;14.24;100.00;101665.38;4968936;28;20153;-62
2021/09/18 05:21:26;;;;;;;74.93;15.18;;;;;;;14.18;100.00;101664.16;4977925;28;20050;-62
2021/09/18 05:23:53;;;;;;;61.50;15.63;;;;;;;14.21;100.00;101673.59;4963865;28;20137;-60
2021/09/18 05:26:20;;;;;;;50.50;16.50;;;;;;;14.40;100.00;101670.81;4973033;28;20094;-61
2021/09/18 05:28:46;;;;;;;60.08;16.98;;;;;;;14.46;100.00;101669.38;4972078;28;20108;-62
2021/09/18 05:31:13;;;;;;;57.65;16.88;;;;;;;14.94;100.00;101677.91;4977754;28;20129;-61
2021/09/18 05:33:39;;;;;;;33.45;15.85;;;;;;;14.57;100.00;101671.81;4979596;28;20050;-62
2021/09/18 05:36:06;;;;;;;51.05;15.98;;;;;;;14.51;100.00;101674.22;4970778;28;20054;-62
2021/09/18 05:38:32;;;;;;;52.90;14.77;;;;;;;14.88;100.00;101673.22;4973969;28;20142;-63
2021/09/18 05:40:59;;;;;;;42.15;15.52;;;;;;;15.21;100.00;101679.53;4969178;28;20082;-62
2021/09/18 05:43:25;;;;;;;53.72;14.23;;;;;;;15.64;100.00;101675.13;4979996;28;20559;-60
2021/09/18 05:45:52;;;;;;;51.28;15.30;;;;;;;15.34;100.00;101674.66;4974020;28;20827;-60
2021/09/18 05:48:18;;;;;;;78.32;15.48;;;;;;;15.18;100.00;101678.06;4979024;28;20081;-62
2021/09/18 05:50:45;;;;;;;122.72;16.25;;;;;;;14.98;100.00;101673.97;4978763;28;20586;-62
2021/09/18 05:53:13;;;;;;;93.40;16.15;;;;;;;15.58;100.00;101681.91;4968302;28;20050;-63
2021/09/18 05:55:39;;;;;;;79.28;16.08;;;;;;;15.70;100.00;101677.19;4977764;28;20926;-63
2021/09/18 05:58:06;;;;;;;99.05;16.20;;;;;;;15.82;100.00;101677.75;4972425;28;20057;-63
2021/09/18 06:00:32;;;;;;;59.67;16.23;;;;;;;15.90;100.00;101676.94;4977849;28;20058;-63
2021/09/18 06:02:59;;;;;;;82.80;17.75;;;;;;;16.01;100.00;101682.78;4980131;28;20492;-63
2021/09/18 06:05:26;;;;;;;125.20;17.35;;;;;;;16.14;100.00;101682.28;4965385;28;20488;-63
2021/09/18 06:07:52;;;;;;;42.80;17.08;;;;;;;16.37;100.00;101679.03;4975051;28;20054;-63
2021/09/18 06:10:19;;;;;;;143.10;19.10;;;;;;;16.32;100.00;101679.50;4973626;28;20054;-63
2021/09/18 06:12:45;;;;;;;56.90;18.52;;;;;;;15.99;100.00;101686.53;4981863;28;20140;-63
2021/09/18 06:15:12;;;;;;;175.35;21.17;;;;;;;15.98;100.00;101679.63;4972189;28;20577;-63
2021/09/18 06:17:38;;;;;;;112.80;19.60;;;;;;;15.99;100.00;101683.91;4981968;28;20058;-63
2021/09/18 06:20:06;;;;;;;86.82;19.02;;;;;;;16.39;100.00;101683.16;4971983;28;20054;-63
2021/09/18 06:22:32;;;;;;;164.55;20.20;;;;;;;16.36;100.00;101680.84;4971634;28;20062;-63
2021/09/18 06:24:59;;;;;;;100.65;18.33;;;;;;;16.55;100.00;101689.47;4977725;28;20496;-63
2021/09/18 06:27:26;;;;;;;67.03;19.88;;;;;;;16.57;100.00;101685.66;4972360;28;20054;-63
2021/09/18 06:29:52;;;;;;;76.68;20.88;;;;;;;16.67;100.00;101688.16;4976836;28;20403;-63
2021/09/18 06:32:19;;;;;;;110.57;20.73;;;;;;;16.83;100.00;101682.06;4970935;28;20078;-60
2021/09/18 06:34:45;;;;;;;101.28;21.45;;;;;;;17.00;100.00;101691.66;4971376;28;20073;-63
2021/09/18 06:37:12;;;;;;;119.18;21.95;;;;;;;16.81;100.00;101694.59;4980838;28;20049;-63
2021/09/18 06:39:38;;;;;;;47.22;20.95;;;;;;;17.02;100.00;101699.44;4968440;28;20494;-63
2021/09/18 06:42:05;;;;;;;57.70;22.70;;;;;;;16.32;100.00;101697.22;4981140;28;20304;-62
2021/09/18 06:44:31;;;;;;;57.63;24.17;;;;;;;16.82;100.00;101698.09;4968904;28;20070;-62
2021/09/18 06:46:57;;;;;;;71.40;24.42;;;;;;;17.16;100.00;101696.09;4974431;28;20816;-62
2021/09/18 06:49:24;;;;;;;71.97;23.08;;;;;;;17.27;100.00;101699.38;4967349;28;20050;-61
2021/09/18 06:51:50;;;;;;;77.20;23.38;;;;;;;17.60;100.00;101702.75;4981623;28;20054;-62
2021/09/18 06:54:17;;;;;;;62.05;25.45;;;;;;;17.12;100.00;101710.69;4976599;28;20059;-63
2021/09/18 06:56:44;;;;;;;64.20;24.77;;;;;;;17.51;100.00;101709.94;4973521;28;20046;-63
2021/09/18 06:59:10;;;;;;;61.83;24.90;;;;;;;17.76;100.00;101708.03;4970811;28;20460;-61
2021/09/18 07:01:36;;;;;;;164.00;23.27;;;;;;;17.81;100.00;101715.47;4969270;28;20082;-63
2021/09/18 07:04:03;;;;;;;71.25;23.10;;;;;;;16.93;100.00;101717.16;4974231;28;20054;-62
2021/09/18 07:06:30;;;;;;;70.63;22.60;;;;;;;16.50;100.00;101712.97;4972839;28;20046;-61
2021/09/18 07:08:56;;;;;;;63.67;25.92;;;;;;;16.81;100.00;101715.81;4978223;28;20570;-62
2021/09/18 07:11:23;;;;;;;55.55;24.38;;;;;;;16.41;100.00;101712.13;4977631;28;20105;-62
2021/09/18 07:13:49;;;;;;;53.28;24.80;;;;;;;16.42;100.00;101716.44;4965346;28;20157;-62
2021/09/18 07:16:16;;;;;;;54.15;22.02;;;;;;;17.42;100.00;101724.22;4971461;28;20089;-62
2021/09/18 07:18:42;;;;;;;58.42;24.27;;;;;;;17.95;100.00;101722.75;4964885;28;20050;-62
2021/09/18 07:21:09;;;;;;;59.97;25.42;;;;;;;17.46;100.00;101728.16;4980460;28;20081;-63
2021/09/18 07:23:35;;;;;;;128.85;26.10;;;;;;;18.04;100.00;101730.66;4970948;28;20061;-63
2021/09/18 07:26:03;;;;;;;63.25;25.77;;;;;;;18.16;100.00;101726.63;4980571;28;20161;-61
2021/09/18 07:28:29;;;;;;;67.40;26.93;;;;;;;17.78;100.00;101724.59;4974022;28;20472;-62
2021/09/18 07:30:56;;;;;;;64.85;26.92;;;;;;;17.50;100.00;101723.34;4972741;28;20288;-62
2021/09/18 07:33:22;;;;;;;72.55;29.15;;;;;;;17.62;100.00;101727.31;4975998;28;20106;-62
2021/09/18 07:35:49;;;;;;;62.95;29.33;;;;;;;17.79;100.00;101731.53;4971294;28;20049;-63
2021/09/18 07:38:15;;;;;;;63.60;28.17;;;;;;;18.05;100.00;101724.34;4971888;28;20142;-63
2021/09/18 07:40:42;;;;;;;81.32;30.65;;;;;;;18.21;100.00;101724.28;4967976;28;20420;-62
2021/09/18 07:43:09;;;;;;;66.50;28.85;;;;;;;18.14;100.00;101726.78;4971894;28;20124;-63
2021/09/18 07:45:35;;;;;;;75.43;31.60;;;;;;;18.12;100.00;101726.13;4977736;28;20443;-63
2021/09/18 07:48:02;;;;;;;75.15;31.10;;;;;;;18.06;100.00;101723.34;4969575;28;20158;-63
2021/09/18 07:50:28;;;;;;;73.55;30.88;;;;;;;18.23;100.00;101732.88;4977537;28;20062;-63
2021/09/18 07:52:55;;;;;;;64.30;30.02;;;;;;;18.15;100.00;101728.44;4965600;28;20054;-63
2021/09/18 07:55:22;;;;;;;83.45;31.60;;;;;;;18.35;100.00;101735.97;4975069;28;20046;-61
2021/09/18 07:58:08;;;;;;;74.78;31.67;;;;;;;18.46;100.00;101743.50;4965838;28;20062;-63
2021/09/18 08:00:35;;;;;;;73.13;31.48;;;;;;;18.14;100.00;101731.28;4972902;28;20161;-61
2021/09/18 08:03:02;;;;;;;82.90;31.63;;;;;;;18.28;100.00;101740.31;4969726;28;20288;-62
2021/09/18 08:05:29;;;;;;;69.25;31.10;;;;;;;18.42;100.00;101744.06;4959716;28;20945;-63
2021/09/18 08:07:59;;;;;;;73.10;31.15;;;;;;;18.83;100.00;101746.47;4974970;28;20622;-63
2021/09/18 08:10:25;;;;;;;80.93;33.22;;;;;;;18.50;100.00;101750.16;4964207;28;20471;-62
2021/09/18 08:12:52;;;;;;;92.43;35.50;;;;;;;18.35;100.00;101741.28;4975227;28;20046;-63
2021/09/18 08:15:19;;;;;;;72.97;29.88;;;;;;;18.41;100.00;101745.88;4969835;28;20085;-63
2021/09/18 08:17:47;;;;;;;81.20;31.73;;;;;;;18.45;100.00;101743.72;4967964;28;20054;-63
2021/09/18 08:20:15;;;;;;;85.88;34.92;;;;;;;18.52;100.00;101745.50;4971186;28;20419;-62
2021/09/18 08:22:46;;;;;;;114.75;39.03;;;;;;;18.33;100.00;101744.09;4967962;28;20054;-61
2021/09/18 08:25:13;;;;;;;137.52;41.97;;;;;;;18.47;100.00;101745.19;4973253;28;20050;-62
2021/09/18 08:27:40;;;;;;;137.40;41.78;;;;;;;18.64;100.00;101748.56;4968835;28;20058;-61
2021/09/18 08:30:07;;;;;;;112.88;41.22;;;;;;;18.80;100.00;101755.63;4972720;28;20368;-62
2021/09/18 08:32:35;;;;;;;128.50;43.65;;;;;;;18.91;100.00;101752.53;4964386;28;20140;-61
2021/09/18 08:35:02;;;;;;;127.07;44.87;;;;;;;19.09;100.00;101754.03;4968775;28;20054;-61
2021/09/18 08:37:29;;;;;;;76.25;29.48;;;;;;;19.22;99.04;101748.13;4976769;28;20149;-62
2021/09/18 08:39:56;;;;;;;119.45;42.95;;;;;;;19.38;98.98;101749.78;4968932;28;20065;-63
2021/09/18 08:42:23;;;;;;;109.85;40.60;;;;;;;19.58;97.58;101748.22;4973620;28;20077;-62
2021/09/18 08:44:50;;;;;;;117.28;41.80;;;;;;;19.54;96.89;101749.59;4966576;28;20124;-63
2021/09/18 08:47:18;;;;;;;115.78;42.53;;;;;;;19.65;96.95;101754.47;4965220;28;20491;-63
2021/09/18 08:49:44;;;;;;;108.95;40.35;;;;;;;19.55;97.88;101760.06;4964170;28;20050;-63
2021/09/18 08:52:11;;;;;;;105.53;41.08;;;;;;;19.56;98.66;101751.09;4975219;28;20137;-63
2021/09/18 08:54:39;;;;;;;115.97;42.53;;;;;;;19.44;100.00;101744.53;4973269;28;20050;-63
2021/09/18 08:57:06;;;;;;;134.18;45.17;;;;;;;19.19;100.00;101748.47;4970199;28;20093;-62
2021/09/18 08:59:37;;;;;;;142.88;48.55;;;;;;;19.21;100.00;101752.63;4970090;28;20116;-63
2021/09/18 09:02:12;;;;;;;130.57;46.97;;;;;;;19.21;100.00;101755.28;4966242;28;20057;-62
2021/09/18 09:04:40;;;;;;;115.22;41.15;;;;;;;19.60;100.00;101756.03;4973590;28;20496;-63
2021/09/18 09:07:09;;;;;;;128.93;47.85;;;;;;;19.63;98.90;101761.81;4973380;28;20058;-63
2021/09/18 09:10:02;;;;;;;143.75;50.95;;;;;;;19.86;97.07;101761.75;4977767;28;20046;-63
2021/09/18 09:12:34;;;;;;;146.20;52.17;;;;;;;19.97;95.57;101756.97;4972983;28;20058;-61
2021/09/18 09:15:06;;;;;;;155.82;52.60;;;;;;;20.18;94.79;101750.88;4969447;28;20427;-63
2021/09/18 09:17:36;;;;;;;153.57;50.75;;;;;;;20.41;nan;101748.88;4977682;28;20867;-62
2021/09/18 09:20:05;;;;;;;145.45;50.70;;;;;;;20.57;93.96;101752.31;4966987;28;20069;-63
2021/09/18 09:22:42;;;;;;;;;;;;;;;20.67;90.77;101750.19;4976368;28;20595;-63
2021/09/18 09:25:30;;;;;;;145.55;49.05;;;;;;;21.13;89.24;101755.09;4967672;28;20012;-63
2021/09/18 09:27:59;;;;;;;135.20;45.80;;;;;;;20.72;89.65;101753.09;4974116;28;20441;-63
2021/09/18 09:30:28;;;;;;;138.30;46.45;;;;;;;20.77;88.61;101753.34;4968222;28;20054;-64
2021/09/18 09:32:55;;;;;;;164.43;54.40;;;;;;;20.72;87.80;101751.25;4980941;28;20054;-63
2021/09/18 09:35:21;;;;;;;152.82;51.22;;;;;;;21.14;87.97;101746.88;4966989;28;20054;-63
2021/09/18 09:37:53;;;;;;;138.38;48.85;;;;;;;21.28;87.67;101755.78;4978579;28;20603;-63
2021/09/18 09:40:31;;;;;;;115.18;40.40;;;;;;;21.48;84.93;101752.47;4983133;28;20068;-63
2021/09/18 09:43:02;;;;;;;151.85;52.08;;;;;;;21.73;82.02;101753.63;4974665;28;20051;-63
2021/09/18 09:45:28;;;;;;;159.10;50.42;;;;;;;22.16;82.22;101754.44;4977277;28;20058;-63
2021/09/18 09:48:13;;;;;;;163.15;52.90;;;;;;;22.60;78.78;101747.75;4971093;28;20057;-62
2021/09/18 09:50:44;;;;;;;151.82;50.90;;;;;;;23.01;77.61;101752.94;4978569;28;20439;-63
2021/09/18 09:53:23;;;;;;;153.82;52.53;;;;;;;21.90;81.23;101751.47;4973156;28;20050;-63
2021/09/18 09:55:50;;;;;;;163.27;54.80;;;;;;;21.40;84.13;101757.94;4977142;28;20340;-63
2021/09/18 09:58:17;;;;;;;159.63;54.30;;;;;;;21.25;87.07;101758.06;4969326;28;20054;-61
2021/09/18 10:00:51;;;;;;;173.02;59.53;;;;;;;21.22;87.25;101758.44;4978719;28;20078;-62
2021/09/18 10:03:23;;;;;;;185.23;61.22;;;;;;;22.09;81.39;101763.25;4972542;28;20480;-60
2021/09/18 10:05:52;;;;;;;131.00;46.97;;;;;;;21.97;83.18;101761.34;4978670;28;20094;-62
2021/09/18 10:08:24;;;;;;;128.73;46.22;;;;;;;22.21;81.98;101773.34;4977547;28;20057;-62
2021/09/18 10:10:53;;;;;;;154.25;54.03;;;;;;;21.96;81.00;101763.19;4967816;28;20074;-62
2021/09/18 10:13:23;;;;;;;120.70;45.85;;;;;;;21.85;83.22;101769.09;4967860;28;20061;-62
2021/09/18 10:15:51;;;;;;;157.85;56.90;;;;;;;22.22;80.71;101767.81;4974841;28;20555;-62
2021/09/18 10:18:18;;;;;;;169.88;57.60;;;;;;;22.25;79.60;101771.97;4976918;28;20058;-62
2021/09/18 10:23:23;;;;;;;154.68;54.67;;;;;;;22.49;79.70;101762.56;4965343;28;20350;-62
2021/09/18 10:25:54;;;;;;;135.45;48.17;;;;;;;22.77;77.53;101767.75;4976544;28;20066;-63
2021/09/18 10:28:26;;;;;;;141.05;49.13;;;;;;;22.87;76.22;101765.50;4974493;28;20050;-62
2021/09/18 10:30:57;;;;;;;156.95;54.55;;;;;;;22.73;78.94;101765.69;4978466;28;20140;-60
2021/09/18 10:33:44;;;;;;;149.82;55.50;;;;;;;22.83;77.00;101758.91;4968390;28;20054;-62
2021/09/18 10:36:18;;;;;;;151.75;54.22;;;;;;;22.87;77.89;101754.81;4973575;28;20048;-62
2021/09/18 10:38:47;;;;;;;147.60;55.08;;;;;;;23.27;77.16;101752.13;4965820;28;20467;-61
2021/09/18 10:41:20;;;;;;;155.57;55.35;;;;;;;23.43;74.90;101750.03;4969971;28;20061;-62
2021/09/18 10:44:00;;;;;;;154.60;55.67;;;;;;;23.57;73.61;101743.59;4971697;28;20070;-62
2021/09/18 10:46:47;;;;;;;148.70;53.38;;;;;;;23.85;71.98;101748.69;4975784;28;20074;-62
2021/09/18 10:49:32;;;;;;;125.60;48.10;;;;;;;23.68;73.12;101745.63;4973879;28;20133;-62
2021/09/18 10:52:23;;;;;;;141.43;52.92;;;;;;;23.49;73.46;101750.00;4971411;28;20058;-63
2021/09/18 10:55:01;;;;;;;144.55;55.05;;;;;;;23.58;73.00;101744.44;4968820;28;20100;-63
2021/09/18 10:57:37;;;;;;;154.45;57.38;;;;;;;23.48;73.84;101740.34;4979825;28;20073;-62
2021/09/18 11:00:09;;;;;;;150.38;57.17;;;;;;;23.51;75.49;101744.47;4977121;28;20055;-63
2021/09/18 11:02:39;;;;;;;147.45;56.95;;;;;;;23.62;75.69;101734.94;4973259;28;20058;-62
2021/09/18 11:05:08;;;;;;;159.85;59.33;;;;;;;23.37;75.13;101734.81;4973978;28;20053;-63
2021/09/18 11:07:43;;;;;;;120.13;47.58;;;;;;;23.78;75.72;101742.56;4967633;28;20270;-62
2021/09/18 11:10:19;;;;;;;150.93;58.53;;;;;;;23.77;73.62;101735.50;4979055;28;20105;-62